createdAt,value
2023-05-20T00:01:07.264Z,12.98
2023-05-20T00:06:10.448Z,12.87
2023-05-20T00:11:15.081Z,12.82
2023-05-20T00:16:18.162Z,12.69
2023-05-20T00:21:21.315Z,12.55
2023-05-20T00:26:26.168Z,12.57
2023-05-20T00:31:31.299Z,12.60
2023-05-20T00:36:34.270Z,12.56
2023-05-20T00:41:39.197Z,12.56
2023-05-20T00:46:42.389Z,12.52
2023-05-20T00:51:45.544Z,12.50
2023-05-20T00:56:50.228Z,12.50
2023-05-20T01:01:53.489Z,12.45
2023-05-20T01:06:57.565Z,12.41
2023-05-20T01:12:09.761Z,12.35
2023-05-20T01:17:17.859Z,12.34
2023-05-20T01:22:21.537Z,12.24
2023-05-20T01:27:26.595Z,12.19
2023-05-20T01:32:36.897Z,12.13
2023-05-20T01:37:41.512Z,12.09
2023-05-20T01:42:52.950Z,11.99
2023-05-20T01:47:56.449Z,11.95
2023-05-20T01:52:59.718Z,11.74
2023-05-20T01:58:04.276Z,11.86
2023-05-20T02:03:07.355Z,11.75
2023-05-20T02:08:12.198Z,11.72
2023-05-20T02:13:16.568Z,11.67
2023-05-20T02:18:19.634Z,11.64
2023-05-20T02:23:22.688Z,11.56
2023-05-20T02:28:27.125Z,11.51
2023-05-20T02:33:31.534Z,11.54
2023-05-20T02:38:34.611Z,11.56
2023-05-20T02:43:39.159Z,11.49
2023-05-20T02:48:42.346Z,11.51
2023-05-20T02:53:45.615Z,11.45
2023-05-20T02:58:50.218Z,11.34
2023-05-20T03:03:53.892Z,11.33
2023-05-20T03:08:57.091Z,11.30
2023-05-20T03:14:01.841Z,11.27
2023-05-20T03:19:05.192Z,11.22
2023-05-20T03:24:08.476Z,11.15
2023-05-20T03:29:13.005Z,11.13
2023-05-20T03:34:16.264Z,11.12
2023-05-20T03:39:20.717Z,11.05
2023-05-20T03:44:25.245Z,11.08
2023-05-20T03:49:28.370Z,11.09
2023-05-20T03:54:31.635Z,11.17
2023-05-20T03:59:36.629Z,11.28
2023-05-20T04:04:43.205Z,11.27
2023-05-20T04:09:46.832Z,11.38
2023-05-20T04:14:52.705Z,11.45
2023-05-20T04:19:56.150Z,11.47
2023-05-20T04:24:59.425Z,11.59
2023-05-20T04:30:04.534Z,11.59
2023-05-20T04:35:13.881Z,11.59
2023-05-20T04:40:21.424Z,11.67
2023-05-20T04:45:26.865Z,11.64
2023-05-20T04:50:29.936Z,11.67
2023-05-20T04:55:33.236Z,11.54
2023-05-20T05:00:38.817Z,11.74
2023-05-20T05:05:43.060Z,11.78
2023-05-20T05:10:46.946Z,11.92
2023-05-20T05:15:59.466Z,11.96
2023-05-20T05:21:05.065Z,12.09
2023-05-20T05:26:09.954Z,12.14
2023-05-20T05:31:15.278Z,12.19
2023-05-20T05:36:19.030Z,12.19
2023-05-20T05:41:22.384Z,12.29
2023-05-20T05:46:27.059Z,12.33
2023-05-20T05:51:31.452Z,12.34
2023-05-20T05:56:34.799Z,12.45
2023-05-20T06:01:39.520Z,12.47
2023-05-20T06:06:42.861Z,12.63
2023-05-20T06:11:46.006Z,12.71
2023-05-20T06:16:50.969Z,12.80
2023-05-20T06:21:54.127Z,12.90
2023-05-20T06:26:57.441Z,12.97
2023-05-20T06:32:02.013Z,13.11
2023-05-20T06:37:06.056Z,13.21
2023-05-20T06:42:09.987Z,13.32
2023-05-20T06:47:15.972Z,13.43
2023-05-20T06:52:19.979Z,13.58
2023-05-20T06:57:23.624Z,13.72
2023-05-20T07:02:28.170Z,13.89
2023-05-20T07:07:31.659Z,14.02
2023-05-20T07:12:37.074Z,14.15
2023-05-20T07:17:42.359Z,14.42
2023-05-20T07:22:45.838Z,14.75
2023-05-20T07:27:57.829Z,15.08
2023-05-20T07:33:02.336Z,15.99
2023-05-20T07:38:05.691Z,16.34
2023-05-20T07:43:08.928Z,16.58
2023-05-20T07:48:14.319Z,16.84
2023-05-20T07:53:17.651Z,17.09
2023-05-20T07:58:21.589Z,17.33
2023-05-20T08:03:29.142Z,17.49
2023-05-20T08:08:38.269Z,17.66
2023-05-20T08:13:50.102Z,17.99
2023-05-20T08:18:55.304Z,18.36
2023-05-20T08:23:59.210Z,18.33
2023-05-20T08:29:02.587Z,18.74
2023-05-20T08:34:08.111Z,19.42
2023-05-20T08:39:11.433Z,19.76
2023-05-20T08:44:14.644Z,20.02
2023-05-20T08:49:20.600Z,20.61
2023-05-20T08:54:26.826Z,20.46
2023-05-20T08:59:30.161Z,20.56
2023-05-20T09:04:34.748Z,20.67
2023-05-20T09:09:37.924Z,21.31
2023-05-20T09:14:41.018Z,21.80
2023-05-20T09:19:45.668Z,22.33
2023-05-20T09:24:50.155Z,22.35
2023-05-20T09:29:53.354Z,22.21
2023-05-20T09:35:01.423Z,22.07
2023-05-20T09:40:09.544Z,22.85
2023-05-20T09:45:12.721Z,22.88
2023-05-20T09:50:17.354Z,22.47
2023-05-20T09:55:23.993Z,22.88
2023-05-20T10:00:27.019Z,23.29
2023-05-20T10:05:37.397Z,23.52
2023-05-20T10:10:50.627Z,23.09
2023-05-20T10:16:05.690Z,23.48
2023-05-20T10:21:24.574Z,23.98
2023-05-20T10:26:37.695Z,23.46
2023-05-20T10:31:46.203Z,23.55
2023-05-20T10:36:59.408Z,24.07
2023-05-20T10:42:09.506Z,24.52
2023-05-20T10:52:20.523Z,22.95
2023-05-20T10:57:24.507Z,23.18
2023-05-20T11:02:34.718Z,23.59
2023-05-20T11:07:39.251Z,24.10
2023-05-20T11:12:42.526Z,24.56
2023-05-20T11:17:54.562Z,24.90
2023-05-20T11:22:59.110Z,24.78
2023-05-20T11:28:02.183Z,24.73
2023-05-20T11:33:06.273Z,24.68
2023-05-20T11:38:11.428Z,23.53
2023-05-20T11:43:16.331Z,23.86
2023-05-20T11:48:20.695Z,23.86
2023-05-20T11:53:26.291Z,24.07
2023-05-20T11:58:31.595Z,24.46
2023-05-20T12:03:34.977Z,24.62
2023-05-20T12:08:39.671Z,24.86
2023-05-20T12:13:44.704Z,25.13
2023-05-20T12:18:48.240Z,24.97
2023-05-20T12:23:57.706Z,25.73
2023-05-20T12:29:01.495Z,25.43
2023-05-20T12:34:04.605Z,24.73
2023-05-20T12:39:09.538Z,24.94
2023-05-20T12:44:12.697Z,25.90
2023-05-20T12:49:15.965Z,25.48
2023-05-20T12:54:21.843Z,25.22
2023-05-20T12:59:24.873Z,25.63
2023-05-20T13:04:28.062Z,26.53
2023-05-20T13:09:33.048Z,26.73
2023-05-20T13:14:36.099Z,25.99
2023-05-20T13:19:39.181Z,25.69
2023-05-20T13:24:43.632Z,25.67
2023-05-20T13:29:46.751Z,25.96
2023-05-20T13:34:50.001Z,26.51
2023-05-20T13:39:55.028Z,26.81
2023-05-20T13:44:58.008Z,26.90
2023-05-20T13:50:03.050Z,27.40
2023-05-20T13:55:09.609Z,27.42
2023-05-20T14:00:13.884Z,27.40
2023-05-20T14:05:17.216Z,27.37
2023-05-20T14:10:26.850Z,27.26
2023-05-20T14:15:34.254Z,27.26
2023-05-20T14:20:46.602Z,26.88
2023-05-20T14:25:58.940Z,27.02
2023-05-20T14:31:09.851Z,27.04
2023-05-20T14:36:13.094Z,26.87
2023-05-20T14:41:31.819Z,26.14
2023-05-20T14:46:58.652Z,26.21
2023-05-20T14:52:05.046Z,26.25
2023-05-20T14:57:17.567Z,26.21
2023-05-20T15:02:21.039Z,26.77
2023-05-20T15:07:24.430Z,27.05
2023-05-20T15:12:29.321Z,26.85
2023-05-20T15:17:32.464Z,26.32
2023-05-20T15:22:35.856Z,26.38
2023-05-20T15:27:41.967Z,26.72
2023-05-20T15:32:45.316Z,26.77
2023-05-20T15:37:48.682Z,26.68
2023-05-20T15:42:56.711Z,26.87
2023-05-20T15:47:59.832Z,26.45
2023-05-20T15:53:04.030Z,25.70
2023-05-20T15:58:08.598Z,25.61
2023-05-20T16:03:12.143Z,25.82
2023-05-20T16:08:15.255Z,25.34
2023-05-20T16:13:19.762Z,25.26
2023-05-20T16:18:23.508Z,25.34
2023-05-20T16:23:26.606Z,24.91
2023-05-20T16:28:31.230Z,24.83
2023-05-20T16:33:34.746Z,24.68
2023-05-20T16:38:38.051Z,24.87
2023-05-20T16:43:42.421Z,25.28
2023-05-20T16:48:45.578Z,25.31
2023-05-20T16:53:48.713Z,24.94
2023-05-20T16:58:53.482Z,24.64
2023-05-20T17:03:56.657Z,24.47
2023-05-20T17:08:59.782Z,24.15
2023-05-20T17:14:05.234Z,23.76
2023-05-20T17:19:08.631Z,23.75
2023-05-20T17:24:11.699Z,23.58
2023-05-20T17:29:16.296Z,23.42
2023-05-20T17:34:19.406Z,23.20
2023-05-20T17:39:22.399Z,23.00
2023-05-20T17:44:26.891Z,23.04
2023-05-20T17:49:31.163Z,23.46
2023-05-20T17:54:34.279Z,23.66
2023-05-20T17:59:41.651Z,23.36
2023-05-20T18:04:44.723Z,23.21
2023-05-20T18:09:47.843Z,22.99
2023-05-20T18:14:53.741Z,22.72
2023-05-20T18:19:56.690Z,22.44
2023-05-20T18:24:59.681Z,22.20
2023-05-20T18:30:04.651Z,22.05
2023-05-20T18:35:08.774Z,21.87
2023-05-20T18:40:12.704Z,21.52
2023-05-20T18:45:17.172Z,21.37
2023-05-20T18:50:20.167Z,21.14
2023-05-20T18:55:23.880Z,20.80
2023-05-20T19:00:28.387Z,20.58
2023-05-20T19:05:31.454Z,20.34
2023-05-20T19:10:34.591Z,20.25
2023-05-20T19:15:38.974Z,20.15
2023-05-20T19:20:42.129Z,20.05
2023-05-20T19:25:45.857Z,19.95
2023-05-20T19:30:50.615Z,19.89
2023-05-20T19:35:53.621Z,19.72
2023-05-20T19:40:56.714Z,19.62
2023-05-20T19:46:01.660Z,19.58
2023-05-20T19:51:04.942Z,19.52
2023-05-20T19:56:08.360Z,19.39
2023-05-20T20:01:13.126Z,19.31
2023-05-20T20:06:16.368Z,19.09
2023-05-20T20:11:19.532Z,18.89
2023-05-20T20:16:24.035Z,18.58
2023-05-20T20:21:27.134Z,18.33
2023-05-20T20:26:30.896Z,18.17
2023-05-20T20:31:35.870Z,18.06
2023-05-20T20:36:39.761Z,17.91
2023-05-20T20:41:45.466Z,17.73
2023-05-20T20:46:51.625Z,17.44
2023-05-20T20:51:54.779Z,17.44
2023-05-20T20:57:00.007Z,17.29
2023-05-20T21:02:04.638Z,17.08
2023-05-20T21:07:08.548Z,16.89
2023-05-20T21:12:11.693Z,16.76
2023-05-20T21:17:16.125Z,16.68
2023-05-20T21:22:19.055Z,16.60
2023-05-20T21:27:22.123Z,16.49
2023-05-20T21:32:26.823Z,16.36
2023-05-20T21:37:30.274Z,16.27
2023-05-20T21:42:33.602Z,16.21
2023-05-20T21:47:38.361Z,15.97
2023-05-20T21:52:41.453Z,16.00
2023-05-20T21:57:48.444Z,15.87
2023-05-20T22:02:53.746Z,15.76
2023-05-20T22:07:57.287Z,15.58
2023-05-20T22:13:02.081Z,15.53
2023-05-20T22:18:07.731Z,15.30
2023-05-20T22:23:11.479Z,15.34
2023-05-20T22:28:14.549Z,15.24
2023-05-20T22:33:19.648Z,15.18
2023-05-20T22:38:23.990Z,15.07
2023-05-20T22:43:27.125Z,14.98
2023-05-20T22:48:31.574Z,14.96
2023-05-20T22:53:34.980Z,14.82
2023-05-20T22:58:39.815Z,14.82
2023-05-20T23:03:46.855Z,14.81
2023-05-20T23:08:50.394Z,14.83
2023-05-20T23:13:53.523Z,14.82
2023-05-20T23:18:58.060Z,14.77
2023-05-20T23:24:01.456Z,14.66
2023-05-20T23:29:04.668Z,14.55
2023-05-20T23:34:10.496Z,14.60
2023-05-20T23:39:15.607Z,14.52
2023-05-20T23:44:19.685Z,14.44
2023-05-20T23:49:27.256Z,14.38
2023-05-20T23:54:34.300Z,14.23
2023-05-20T23:59:37.313Z,14.15
